Terminal Aerodrome Forecast
Issued by NWS

Home | Current Version | Previous Version | Graphics & Text | Print | Product List | Glossary On
Versions: 1 2 3 4 5 6 7 8 9 10 11 12 13 14 15 16 17 18 19 20 21 22 23 24 25 26 27 28 29 30 31 32 33 34
491
FTUS43 KLOT 210300 AAA
TAFMDW
TAF AMD
KMDW 210300Z 2103/2124 12007KT 1SM -DZ BR OVC004
      TEMPO 2105/2109 3/4SM BR OVC002
     FM210900 16007KT 1SM -DZ BR OVC003
      TEMPO 2109/2113 3/4SM BR OVC002
     FM211300 17009KT 1SM BR OVC003
     FM211500 18011KT 3SM BR OVC007
     FM211700 19012G18KT P6SM SCT009 BKN015=

USA.gov is the U.S. government's official web portal to all federal, state and local government web resources and services.